sensor_id;sensor_type;location;lat;lon;timestamp;P1;durP1;ratioP1;P2;durP2;ratioP2
54947;SDS011;41113;41.882;12.530;2023-08-06T19:27:53;29.52;;;9.05;;
54947;SDS011;41113;41.882;12.530;2023-08-06T19:30:18;21.50;;;6.80;;
54947;SDS011;41113;41.882;12.530;2023-08-06T19:32:44;21.00;;;6.25;;
54947;SDS011;41113;41.882;12.530;2023-08-06T19:35:09;19.77;;;5.50;;
54947;SDS011;41113;41.882;12.530;2023-08-06T19:37:34;17.85;;;5.80;;
54947;SDS011;41113;41.882;12.530;2023-08-06T19:40:00;19.67;;;5.68;;
54947;SDS011;41113;41.882;12.530;2023-08-06T19:42:26;24.10;;;6.78;;
54947;SDS011;41113;41.882;12.530;2023-08-06T19:44:51;20.40;;;5.78;;
54947;SDS011;41113;41.882;12.530;2023-08-06T19:47:17;17.10;;;4.70;;
54947;SDS011;41113;41.882;12.530;2023-08-06T19:49:42;16.23;;;4.75;;
54947;SDS011;41113;41.882;12.530;2023-08-06T19:52:08;19.20;;;4.65;;
54947;SDS011;41113;41.882;12.530;2023-08-06T19:54:33;15.88;;;4.88;;
54947;SDS011;41113;41.882;12.530;2023-08-06T19:57:01;15.10;;;4.78;;
54947;SDS011;41113;41.882;12.530;2023-08-06T19:59:27;14.73;;;4.70;;
54947;SDS011;41113;41.882;12.530;2023-08-06T20:01:52;19.40;;;4.80;;
54947;SDS011;41113;41.882;12.530;2023-08-06T20:04:19;16.50;;;4.22;;
54947;SDS011;41113;41.882;12.530;2023-08-06T20:06:44;20.08;;;4.72;;
54947;SDS011;41113;41.882;12.530;2023-08-06T20:09:11;17.30;;;4.40;;
54947;SDS011;41113;41.882;12.530;2023-08-06T20:11:40;17.80;;;4.20;;
54947;SDS011;41113;41.882;12.530;2023-08-06T20:14:06;21.17;;;5.28;;
54947;SDS011;41113;41.882;12.530;2023-08-06T20:16:32;22.70;;;5.70;;
54947;SDS011;41113;41.882;12.530;2023-08-06T20:18:57;17.38;;;4.80;;
54947;SDS011;41113;41.882;12.530;2023-08-06T20:21:23;20.08;;;4.88;;
54947;SDS011;41113;41.882;12.530;2023-08-06T20:23:48;27.33;;;4.80;;
54947;SDS011;41113;41.882;12.530;2023-08-06T20:26:14;21.58;;;4.78;;
54947;SDS011;41113;41.882;12.530;2023-08-06T20:28:39;16.88;;;4.57;;
54947;SDS011;41113;41.882;12.530;2023-08-06T20:31:04;18.13;;;4.90;;
54947;SDS011;41113;41.882;12.530;2023-08-06T20:33:31;16.67;;;4.35;;
54947;SDS011;41113;41.882;12.530;2023-08-06T20:35:57;23.10;;;6.13;;
54947;SDS011;41113;41.882;12.530;2023-08-06T20:38:22;17.38;;;4.40;;
54947;SDS011;41113;41.882;12.530;2023-08-06T20:40:49;17.13;;;4.10;;
54947;SDS011;41113;41.882;12.530;2023-08-06T20:43:15;20.88;;;5.07;;
54947;SDS011;41113;41.882;12.530;2023-08-06T20:45:40;16.48;;;4.18;;
54947;SDS011;41113;41.882;12.530;2023-08-06T20:48:06;25.77;;;5.63;;
54947;SDS011;41113;41.882;12.530;2023-08-06T20:50:31;18.45;;;5.53;;
54947;SDS011;41113;41.882;12.530;2023-08-06T20:52:57;18.08;;;5.38;;
54947;SDS011;41113;41.882;12.530;2023-08-06T20:55:26;17.95;;;4.50;;
54947;SDS011;41113;41.882;12.530;2023-08-06T20:57:51;17.27;;;4.40;;
54947;SDS011;41113;41.882;12.530;2023-08-06T21:00:18;19.92;;;4.53;;
54947;SDS011;41113;41.882;12.530;2023-08-06T21:02:43;14.95;;;4.68;;
54947;SDS011;41113;41.882;12.530;2023-08-06T21:05:09;14.13;;;5.03;;
54947;SDS011;41113;41.882;12.530;2023-08-06T21:07:38;14.32;;;4.30;;
54947;SDS011;41113;41.882;12.530;2023-08-06T21:10:03;15.98;;;4.78;;
54947;SDS011;41113;41.882;12.530;2023-08-06T21:12:29;21.85;;;4.90;;
54947;SDS011;41113;41.882;12.530;2023-08-06T21:14:54;15.18;;;4.28;;
54947;SDS011;41113;41.882;12.530;2023-08-06T21:17:19;17.63;;;4.80;;
54947;SDS011;41113;41.882;12.530;2023-08-06T21:19:45;18.75;;;4.93;;
54947;SDS011;41113;41.882;12.530;2023-08-06T21:22:10;21.33;;;6.03;;
54947;SDS011;41113;41.882;12.530;2023-08-06T21:24:35;16.30;;;4.57;;
54947;SDS011;41113;41.882;12.530;2023-08-06T21:27:01;20.90;;;4.95;;
54947;SDS011;41113;41.882;12.530;2023-08-06T21:29:27;20.55;;;6.05;;
54947;SDS011;41113;41.882;12.530;2023-08-06T21:31:52;23.65;;;5.45;;
54947;SDS011;41113;41.882;12.530;2023-08-06T21:34:17;21.13;;;5.47;;
54947;SDS011;41113;41.882;12.530;2023-08-06T21:36:43;21.98;;;5.85;;
54947;SDS011;41113;41.882;12.530;2023-08-06T21:39:08;31.17;;;6.40;;
54947;SDS011;41113;41.882;12.530;2023-08-06T21:41:34;23.95;;;5.95;;
54947;SDS011;41113;41.882;12.530;2023-08-06T21:43:59;17.38;;;5.13;;
54947;SDS011;41113;41.882;12.530;2023-08-06T21:46:27;19.55;;;5.63;;
54947;SDS011;41113;41.882;12.530;2023-08-06T21:48:52;19.52;;;5.15;;
54947;SDS011;41113;41.882;12.530;2023-08-06T21:51:18;22.20;;;5.35;;
54947;SDS011;41113;41.882;12.530;2023-08-06T21:53:45;23.35;;;6.15;;
54947;SDS011;41113;41.882;12.530;2023-08-06T21:56:12;22.40;;;5.32;;
54947;SDS011;41113;41.882;12.530;2023-08-06T21:58:38;18.75;;;5.55;;
54947;SDS011;41113;41.882;12.530;2023-08-06T22:01:09;22.80;;;5.40;;
54947;SDS011;41113;41.882;12.530;2023-08-06T22:03:36;17.30;;;4.78;;
54947;SDS011;41113;41.882;12.530;2023-08-06T22:06:02;15.30;;;4.50;;
54947;SDS011;41113;41.882;12.530;2023-08-06T22:08:27;17.40;;;5.88;;
54947;SDS011;41113;41.882;12.530;2023-08-06T22:10:54;20.75;;;5.20;;
54947;SDS011;41113;41.882;12.530;2023-08-06T22:13:21;17.35;;;4.78;;
54947;SDS011;41113;41.882;12.530;2023-08-06T22:15:47;28.10;;;5.00;;
54947;SDS011;41113;41.882;12.530;2023-08-06T22:18:12;21.35;;;5.35;;
54947;SDS011;41113;41.882;12.530;2023-08-06T22:20:37;19.90;;;4.80;;
54947;SDS011;41113;41.882;12.530;2023-08-06T22:23:03;18.40;;;5.40;;
54947;SDS011;41113;41.882;12.530;2023-08-06T22:25:28;22.15;;;4.93;;
54947;SDS011;41113;41.882;12.530;2023-08-06T22:27:54;21.60;;;5.20;;
54947;SDS011;41113;41.882;12.530;2023-08-06T22:30:20;21.27;;;4.97;;
54947;SDS011;41113;41.882;12.530;2023-08-06T22:32:45;17.65;;;4.63;;
54947;SDS011;41113;41.882;12.530;2023-08-06T22:35:11;19.98;;;4.75;;
54947;SDS011;41113;41.882;12.530;2023-08-06T22:37:40;16.90;;;4.15;;
54947;SDS011;41113;41.882;12.530;2023-08-06T22:40:06;13.45;;;3.72;;
54947;SDS011;41113;41.882;12.530;2023-08-06T22:42:32;13.25;;;3.67;;
54947;SDS011;41113;41.882;12.530;2023-08-06T22:44:57;17.27;;;4.35;;
54947;SDS011;41113;41.882;12.530;2023-08-06T22:47:23;22.27;;;5.57;;
54947;SDS011;41113;41.882;12.530;2023-08-06T22:49:48;19.95;;;5.65;;
54947;SDS011;41113;41.882;12.530;2023-08-06T22:52:14;24.38;;;5.20;;
54947;SDS011;41113;41.882;12.530;2023-08-06T22:54:39;18.42;;;4.20;;
54947;SDS011;41113;41.882;12.530;2023-08-06T22:57:05;16.73;;;4.78;;
54947;SDS011;41113;41.882;12.530;2023-08-06T22:59:31;22.23;;;4.55;;
54947;SDS011;41113;41.882;12.530;2023-08-06T23:01:56;14.32;;;4.00;;
54947;SDS011;41113;41.882;12.530;2023-08-06T23:04:22;18.95;;;4.80;;
54947;SDS011;41113;41.882;12.530;2023-08-06T23:06:47;18.25;;;4.80;;
54947;SDS011;41113;41.882;12.530;2023-08-06T23:09:12;17.08;;;4.40;;
54947;SDS011;41113;41.882;12.530;2023-08-06T23:11:38;13.18;;;4.18;;
54947;SDS011;41113;41.882;12.530;2023-08-06T23:14:03;13.35;;;4.40;;
54947;SDS011;41113;41.882;12.530;2023-08-06T23:16:29;13.75;;;3.95;;
54947;SDS011;41113;41.882;12.530;2023-08-06T23:18:54;19.77;;;4.47;;
54947;SDS011;41113;41.882;12.530;2023-08-06T23:21:19;15.38;;;3.70;;
54947;SDS011;41113;41.882;12.530;2023-08-06T23:23:45;17.83;;;4.22;;
54947;SDS011;41113;41.882;12.530;2023-08-06T23:26:10;20.92;;;4.95;;
54947;SDS011;41113;41.882;12.530;2023-08-06T23:28:35;15.00;;;4.10;;
54947;SDS011;41113;41.882;12.530;2023-08-06T23:31:01;14.95;;;4.18;;
54947;SDS011;41113;41.882;12.530;2023-08-06T23:33:27;18.90;;;3.92;;
54947;SDS011;41113;41.882;12.530;2023-08-06T23:35:52;18.35;;;4.32;;
54947;SDS011;41113;41.882;12.530;2023-08-06T23:38:18;16.83;;;4.15;;
54947;SDS011;41113;41.882;12.530;2023-08-06T23:40:43;15.13;;;3.55;;
54947;SDS011;41113;41.882;12.530;2023-08-06T23:43:09;14.50;;;3.75;;
54947;SDS011;41113;41.882;12.530;2023-08-06T23:45:35;20.58;;;4.13;;
54947;SDS011;41113;41.882;12.530;2023-08-06T23:48:01;22.67;;;4.97;;
54947;SDS011;41113;41.882;12.530;2023-08-06T23:50:28;18.02;;;4.70;;
54947;SDS011;41113;41.882;12.530;2023-08-06T23:52:54;16.55;;;3.80;;
54947;SDS011;41113;41.882;12.530;2023-08-06T23:55:20;16.80;;;3.90;;
54947;SDS011;41113;41.882;12.530;2023-08-06T23:57:45;17.50;;;4.13;;
